sensor_id;sensor_type;location;lat;lon;timestamp;pressure;altitude;pressure_sealevel;temperature;humidity
11349;BME280;5729;43.570;27.826;2023-05-20T00:02:09;99206.56;;;17.14;100.00
11349;BME280;5729;43.570;27.826;2023-05-20T00:04:35;99199.91;;;17.18;100.00
11349;BME280;5729;43.570;27.826;2023-05-20T00:07:00;99208.06;;;17.22;100.00
11349;BME280;5729;43.570;27.826;2023-05-20T00:09:25;99211.97;;;17.21;100.00
11349;BME280;5729;43.570;27.826;2023-05-20T00:11:51;99212.34;;;17.23;100.00
11349;BME280;5729;43.570;27.826;2023-05-20T00:14:16;99206.91;;;17.23;100.00
11349;BME280;5729;43.570;27.826;2023-05-20T00:16:42;99209.97;;;17.28;100.00
11349;BME280;5729;43.570;27.826;2023-05-20T00:19:07;99209.19;;;17.31;100.00
11349;BME280;5729;43.570;27.826;2023-05-20T00:21:33;99214.63;;;17.35;100.00
11349;BME280;5729;43.570;27.826;2023-05-20T00:23:58;99210.78;;;17.22;100.00
11349;BME280;5729;43.570;27.826;2023-05-20T00:26:24;99208.84;;;17.26;100.00
11349;BME280;5729;43.570;27.826;2023-05-20T00:28:50;99205.72;;;17.24;100.00
11349;BME280;5729;43.570;27.826;2023-05-20T00:31:16;99202.94;;;17.31;100.00
11349;BME280;5729;43.570;27.826;2023-05-20T00:33:41;99195.63;;;17.21;100.00
11349;BME280;5729;43.570;27.826;2023-05-20T00:36:07;99196.78;;;17.23;100.00
11349;BME280;5729;43.570;27.826;2023-05-20T00:38:33;99199.13;;;17.21;100.00
11349;BME280;5729;43.570;27.826;2023-05-20T00:40:58;99183.94;;;17.20;100.00
11349;BME280;5729;43.570;27.826;2023-05-20T00:43:23;99181.22;;;17.17;100.00
11349;BME280;5729;43.570;27.826;2023-05-20T00:45:52;99172.34;;;17.09;100.00
11349;BME280;5729;43.570;27.826;2023-05-20T00:48:17;99181.28;;;17.13;100.00
11349;BME280;5729;43.570;27.826;2023-05-20T00:50:43;99175.00;;;17.20;100.00
11349;BME280;5729;43.570;27.826;2023-05-20T00:53:09;99169.94;;;17.18;100.00
11349;BME280;5729;43.570;27.826;2023-05-20T00:55:34;99172.28;;;17.16;100.00
11349;BME280;5729;43.570;27.826;2023-05-20T00:58:00;99176.53;;;17.24;100.00
11349;BME280;5729;43.570;27.826;2023-05-20T01:00:26;99176.16;;;17.22;100.00
11349;BME280;5729;43.570;27.826;2023-05-20T01:02:51;99167.56;;;17.27;100.00
11349;BME280;5729;43.570;27.826;2023-05-20T01:05:17;99167.19;;;17.25;100.00
11349;BME280;5729;43.570;27.826;2023-05-20T01:07:43;99162.47;;;17.29;100.00
11349;BME280;5729;43.570;27.826;2023-05-20T01:10:09;99164.09;;;17.23;100.00
11349;BME280;5729;43.570;27.826;2023-05-20T01:12:44;99165.59;;;17.28;100.00
11349;BME280;5729;43.570;27.826;2023-05-20T01:15:11;99168.00;;;17.22;100.00
11349;BME280;5729;43.570;27.826;2023-05-20T01:17:42;99162.53;;;17.22;100.00
11349;BME280;5729;43.570;27.826;2023-05-20T01:20:09;99157.28;;;16.83;100.00
11349;BME280;5729;43.570;27.826;2023-05-20T01:22:46;99168.53;;;16.92;100.00
11349;BME280;5729;43.570;27.826;2023-05-20T01:25:12;99180.19;;;16.96;100.00
11349;BME280;5729;43.570;27.826;2023-05-20T01:27:37;99168.94;;;16.87;100.00
11349;BME280;5729;43.570;27.826;2023-05-20T01:30:03;99173.22;;;16.92;100.00
11349;BME280;5729;43.570;27.826;2023-05-20T01:32:35;99180.56;;;16.95;100.00
11349;BME280;5729;43.570;27.826;2023-05-20T01:35:01;99172.06;;;16.89;100.00
11349;BME280;5729;43.570;27.826;2023-05-20T01:37:30;99178.63;;;16.95;100.00
11349;BME280;5729;43.570;27.826;2023-05-20T01:39:56;99181.00;;;16.90;100.00
11349;BME280;5729;43.570;27.826;2023-05-20T01:42:22;99188.34;;;17.00;100.00
11349;BME280;5729;43.570;27.826;2023-05-20T01:44:48;99186.38;;;17.00;100.00
11349;BME280;5729;43.570;27.826;2023-05-20T01:47:13;99184.84;;;16.96;100.00
11349;BME280;5729;43.570;27.826;2023-05-20T01:49:39;99189.13;;;16.93;100.00
11349;BME280;5729;43.570;27.826;2023-05-20T01:52:04;99183.69;;;16.93;100.00
11349;BME280;5729;43.570;27.826;2023-05-20T01:54:30;99181.38;;;16.92;100.00
11349;BME280;5729;43.570;27.826;2023-05-20T01:56:56;99174.81;;;16.72;100.00
11349;BME280;5729;43.570;27.826;2023-05-20T01:59:21;99182.19;;;16.82;100.00
11349;BME280;5729;43.570;27.826;2023-05-20T02:01:46;99185.72;;;16.75;100.00
11349;BME280;5729;43.570;27.826;2023-05-20T02:04:12;99183.72;;;16.83;100.00
11349;BME280;5729;43.570;27.826;2023-05-20T02:06:37;99188.81;;;16.77;100.00
11349;BME280;5729;43.570;27.826;2023-05-20T02:09:03;99198.53;;;16.78;100.00
11349;BME280;5729;43.570;27.826;2023-05-20T02:11:29;99200.09;;;16.76;100.00
11349;BME280;5729;43.570;27.826;2023-05-20T02:13:54;99200.47;;;16.78;100.00
11349;BME280;5729;43.570;27.826;2023-05-20T02:16:20;99203.22;;;16.74;100.00
11349;BME280;5729;43.570;27.826;2023-05-20T02:18:45;99204.34;;;16.84;100.00
11349;BME280;5729;43.570;27.826;2023-05-20T02:21:11;99200.06;;;16.90;100.00
11349;BME280;5729;43.570;27.826;2023-05-20T02:23:36;99203.19;;;16.81;100.00
11349;BME280;5729;43.570;27.826;2023-05-20T02:26:02;99200.06;;;16.90;100.00
11349;BME280;5729;43.570;27.826;2023-05-20T02:28:28;99194.19;;;16.95;100.00
11349;BME280;5729;43.570;27.826;2023-05-20T02:30:53;99193.03;;;16.92;100.00
11349;BME280;5729;43.570;27.826;2023-05-20T02:33:19;99186.06;;;16.88;100.00
11349;BME280;5729;43.570;27.826;2023-05-20T02:35:45;99195.34;;;16.94;100.00
11349;BME280;5729;43.570;27.826;2023-05-20T02:38:13;99184.09;;;16.92;100.00
11349;BME280;5729;43.570;27.826;2023-05-20T02:40:43;99203.94;;;16.89;100.00
11349;BME280;5729;43.570;27.826;2023-05-20T02:43:08;99218.28;;;16.96;100.00
11349;BME280;5729;43.570;27.826;2023-05-20T02:45:34;99215.28;;;16.69;100.00
11349;BME280;5729;43.570;27.826;2023-05-20T02:47:59;99218.78;;;16.66;100.00
11349;BME280;5729;43.570;27.826;2023-05-20T02:50:25;99215.69;;;16.64;100.00
11349;BME280;5729;43.570;27.826;2023-05-20T02:52:50;99218.75;;;16.59;100.00
11349;BME280;5729;43.570;27.826;2023-05-20T02:55:16;99220.72;;;16.52;100.00
11349;BME280;5729;43.570;27.826;2023-05-20T02:57:41;99220.00;;;16.48;100.00
11349;BME280;5729;43.570;27.826;2023-05-20T03:00:07;99229.28;;;16.50;100.00
11349;BME280;5729;43.570;27.826;2023-05-20T03:02:37;99228.50;;;16.50;100.00
11349;BME280;5729;43.570;27.826;2023-05-20T03:05:02;99229.66;;;16.49;100.00
11349;BME280;5729;43.570;27.826;2023-05-20T03:07:30;99221.94;;;16.47;100.00
11349;BME280;5729;43.570;27.826;2023-05-20T03:09:56;99239.78;;;16.59;100.00
11349;BME280;5729;43.570;27.826;2023-05-20T03:12:23;99233.56;;;16.58;100.00
11349;BME280;5729;43.570;27.826;2023-05-20T03:14:50;99242.50;;;16.59;100.00
11349;BME280;5729;43.570;27.826;2023-05-20T03:17:19;99247.94;;;16.69;100.00
11349;BME280;5729;43.570;27.826;2023-05-20T03:19:45;99249.88;;;16.73;100.00
11349;BME280;5729;43.570;27.826;2023-05-20T03:22:10;99249.91;;;16.69;100.00
11349;BME280;5729;43.570;27.826;2023-05-20T03:24:36;99248.28;;;16.82;100.00
11349;BME280;5729;43.570;27.826;2023-05-20T03:27:01;99258.38;;;16.89;100.00
11349;BME280;5729;43.570;27.826;2023-05-20T03:29:27;99265.78;;;16.92;100.00
11349;BME280;5729;43.570;27.826;2023-05-20T03:31:52;99258.34;;;16.96;100.00
11349;BME280;5729;43.570;27.826;2023-05-20T03:34:18;99265.38;;;16.90;100.00
11349;BME280;5729;43.570;27.826;2023-05-20T03:36:43;99263.06;;;16.92;100.00
11349;BME280;5729;43.570;27.826;2023-05-20T03:39:09;99254.06;;;16.95;100.00
11349;BME280;5729;43.570;27.826;2023-05-20T03:41:34;99263.84;;;16.92;100.00
11349;BME280;5729;43.570;27.826;2023-05-20T03:43:59;99261.88;;;16.93;100.00
11349;BME280;5729;43.570;27.826;2023-05-20T03:46:25;99265.78;;;16.85;100.00
11349;BME280;5729;43.570;27.826;2023-05-20T03:48:50;99262.66;;;16.86;100.00
11349;BME280;5729;43.570;27.826;2023-05-20T03:51:16;99268.88;;;16.87;100.00
11349;BME280;5729;43.570;27.826;2023-05-20T03:53:41;99263.47;;;16.80;100.00
11349;BME280;5729;43.570;27.826;2023-05-20T03:56:06;99259.22;;;16.64;100.00
11349;BME280;5729;43.570;27.826;2023-05-20T03:58:32;99254.56;;;16.65;100.00
11349;BME280;5729;43.570;27.826;2023-05-20T04:00:57;99264.28;;;16.69;100.00
11349;BME280;5729;43.570;27.826;2023-05-20T04:03:23;99266.22;;;16.69;100.00
11349;BME280;5729;43.570;27.826;2023-05-20T04:05:49;99250.25;;;16.60;100.00
11349;BME280;5729;43.570;27.826;2023-05-20T04:08:14;99255.69;;;16.60;100.00
11349;BME280;5729;43.570;27.826;2023-05-20T04:10:40;99254.16;;;16.63;100.00
11349;BME280;5729;43.570;27.826;2023-05-20T04:13:10;99249.91;;;16.62;100.00
11349;BME280;5729;43.570;27.826;2023-05-20T04:15:36;99270.09;;;16.57;100.00
11349;BME280;5729;43.570;27.826;2023-05-20T04:18:03;99248.72;;;16.52;100.00
11349;BME280;5729;43.570;27.826;2023-05-20T04:20:29;99258.06;;;16.55;100.00
11349;BME280;5729;43.570;27.826;2023-05-20T04:22:55;99263.50;;;16.62;100.00
11349;BME280;5729;43.570;27.826;2023-05-20T04:25:21;99262.69;;;16.61;100.00
11349;BME280;5729;43.570;27.826;2023-05-20T04:27:46;99263.50;;;16.58;100.00
11349;BME280;5729;43.570;27.826;2023-05-20T04:30:14;99261.56;;;16.62;100.00
11349;BME280;5729;43.570;27.826;2023-05-20T04:32:40;99260.00;;;16.58;100.00
11349;BME280;5729;43.570;27.826;2023-05-20T04:35:06;99246.81;;;16.35;100.00
11349;BME280;5729;43.570;27.826;2023-05-20T04:37:35;99259.22;;;16.50;100.00
11349;BME280;5729;43.570;27.826;2023-05-20T04:40:01;99259.25;;;16.32;100.00
11349;BME280;5729;43.570;27.826;2023-05-20T04:42:27;99244.47;;;16.37;100.00
11349;BME280;5729;43.570;27.826;2023-05-20T04:44:54;99243.72;;;16.12;100.00
11349;BME280;5729;43.570;27.826;2023-05-20T04:47:19;99232.44;;;16.17;100.00
11349;BME280;5729;43.570;27.826;2023-05-20T04:49:44;99223.13;;;16.14;100.00
11349;BME280;5729;43.570;27.826;2023-05-20T04:52:10;99221.59;;;16.03;100.00
11349;BME280;5729;43.570;27.826;2023-05-20T04:54:35;99216.13;;;16.06;100.00
11349;BME280;5729;43.570;27.826;2023-05-20T04:57:01;99223.13;;;16.04;100.00
11349;BME280;5729;43.570;27.826;2023-05-20T04:59:27;99228.19;;;15.98;100.00
11349;BME280;5729;43.570;27.826;2023-05-20T05:01:52;99228.56;;;15.96;100.00
11349;BME280;5729;43.570;27.826;2023-05-20T05:04:18;99224.69;;;16.01;100.00
11349;BME280;5729;43.570;27.826;2023-05-20T05:06:43;99229.75;;;16.03;100.00
11349;BME280;5729;43.570;27.826;2023-05-20T05:09:08;99235.53;;;16.15;100.00
11349;BME280;5729;43.570;27.826;2023-05-20T05:11:34;99236.72;;;16.21;100.00
11349;BME280;5729;43.570;27.826;2023-05-20T05:13:59;99240.19;;;16.25;100.00
11349;BME280;5729;43.570;27.826;2023-05-20T05:16:25;99246.78;;;16.53;100.00
11349;BME280;5729;43.570;27.826;2023-05-20T05:18:50;99234.34;;;16.69;100.00
11349;BME280;5729;43.570;27.826;2023-05-20T05:21:16;99238.94;;;16.87;100.00
11349;BME280;5729;43.570;27.826;2023-05-20T05:23:42;99233.09;;;16.88;100.00
11349;BME280;5729;43.570;27.826;2023-05-20T05:26:07;99231.97;;;16.75;100.00
11349;BME280;5729;43.570;27.826;2023-05-20T05:28:33;99228.47;;;16.75;100.00
11349;BME280;5729;43.570;27.826;2023-05-20T05:30:58;99227.28;;;16.83;100.00
11349;BME280;5729;43.570;27.826;2023-05-20T05:33:26;99225.72;;;16.89;100.00
11349;BME280;5729;43.570;27.826;2023-05-20T05:35:51;99222.50;;;17.15;100.00
11349;BME280;5729;43.570;27.826;2023-05-20T05:38:17;99214.28;;;17.22;100.00
11349;BME280;5729;43.570;27.826;2023-05-20T05:40:42;99219.28;;;17.34;100.00
11349;BME280;5729;43.570;27.826;2023-05-20T05:43:08;99227.00;;;17.43;100.00
11349;BME280;5729;43.570;27.826;2023-05-20T05:45:33;99218.00;;;17.53;100.00
11349;BME280;5729;43.570;27.826;2023-05-20T05:47:59;99223.00;;;17.62;100.00
11349;BME280;5729;43.570;27.826;2023-05-20T05:50:24;99216.31;;;17.77;100.00
11349;BME280;5729;43.570;27.826;2023-05-20T05:52:49;99208.91;;;17.77;100.00
11349;BME280;5729;43.570;27.826;2023-05-20T05:55:15;99216.97;;;17.92;100.00
11349;BME280;5729;43.570;27.826;2023-05-20T05:57:42;99209.63;;;17.85;100.00
11349;BME280;5729;43.570;27.826;2023-05-20T06:00:08;99209.69;;;17.78;100.00
11349;BME280;5729;43.570;27.826;2023-05-20T06:02:33;99212.34;;;17.85;100.00
11349;BME280;5729;43.570;27.826;2023-05-20T06:05:03;99214.81;;;17.62;100.00
11349;BME280;5729;43.570;27.826;2023-05-20T06:07:29;99214.75;;;17.76;100.00
11349;BME280;5729;43.570;27.826;2023-05-20T06:09:54;99215.06;;;17.85;100.00
11349;BME280;5729;43.570;27.826;2023-05-20T06:12:19;99207.72;;;17.82;100.00
11349;BME280;5729;43.570;27.826;2023-05-20T06:14:46;99207.81;;;17.68;100.00
11349;BME280;5729;43.570;27.826;2023-05-20T06:17:11;99210.78;;;17.84;100.00
11349;BME280;5729;43.570;27.826;2023-05-20T06:19:37;99209.00;;;17.63;100.00
11349;BME280;5729;43.570;27.826;2023-05-20T06:22:02;99219.34;;;17.86;100.00
11349;BME280;5729;43.570;27.826;2023-05-20T06:24:28;99213.00;;;18.00;100.00
11349;BME280;5729;43.570;27.826;2023-05-20T06:26:53;99218.47;;;18.00;100.00
11349;BME280;5729;43.570;27.826;2023-05-20T06:29:19;99217.56;;;18.13;100.00
11349;BME280;5729;43.570;27.826;2023-05-20T06:31:44;99211.06;;;18.41;100.00
11349;BME280;5729;43.570;27.826;2023-05-20T06:34:10;99218.72;;;18.54;100.00
11349;BME280;5729;43.570;27.826;2023-05-20T06:36:35;99202.97;;;18.31;100.00
11349;BME280;5729;43.570;27.826;2023-05-20T06:39:01;99222.69;;;18.49;100.00
11349;BME280;5729;43.570;27.826;2023-05-20T06:41:26;99210.13;;;18.59;100.00
11349;BME280;5729;43.570;27.826;2023-05-20T06:43:52;99224.34;;;18.77;100.00
11349;BME280;5729;43.570;27.826;2023-05-20T06:46:17;99220.66;;;18.57;100.00
11349;BME280;5729;43.570;27.826;2023-05-20T06:48:43;99229.44;;;18.75;100.00
11349;BME280;5729;43.570;27.826;2023-05-20T06:51:08;99228.31;;;18.72;100.00
11349;BME280;5729;43.570;27.826;2023-05-20T06:53:34;99234.75;;;18.89;100.00
11349;BME280;5729;43.570;27.826;2023-05-20T06:55:59;99231.44;;;19.05;100.00
11349;BME280;5729;43.570;27.826;2023-05-20T06:58:25;99234.88;;;18.78;100.00
11349;BME280;5729;43.570;27.826;2023-05-20T07:00:51;99235.63;;;18.82;100.00
11349;BME280;5729;43.570;27.826;2023-05-20T07:03:16;99236.44;;;18.79;100.00
11349;BME280;5729;43.570;27.826;2023-05-20T07:05:42;99243.81;;;18.82;100.00
11349;BME280;5729;43.570;27.826;2023-05-20T07:08:07;99236.25;;;18.56;100.00
11349;BME280;5729;43.570;27.826;2023-05-20T07:10:33;99251.09;;;18.59;100.00
11349;BME280;5729;43.570;27.826;2023-05-20T07:12:58;99248.34;;;18.62;100.00
11349;BME280;5729;43.570;27.826;2023-05-20T07:15:24;99261.91;;;18.69;100.00
11349;BME280;5729;43.570;27.826;2023-05-20T07:17:50;99247.78;;;18.74;100.00
11349;BME280;5729;43.570;27.826;2023-05-20T07:20:15;99257.91;;;18.77;100.00
11349;BME280;5729;43.570;27.826;2023-05-20T07:22:41;99241.13;;;18.79;100.00
11349;BME280;5729;43.570;27.826;2023-05-20T07:25:08;99248.88;;;18.84;100.00
11349;BME280;5729;43.570;27.826;2023-05-20T07:27:33;99248.38;;;18.93;100.00
11349;BME280;5729;43.570;27.826;2023-05-20T07:29:59;99242.03;;;18.99;100.00
11349;BME280;5729;43.570;27.826;2023-05-20T07:32:24;99245.69;;;19.19;100.00
11349;BME280;5729;43.570;27.826;2023-05-20T07:34:50;99253.31;;;19.35;100.00
11349;BME280;5729;43.570;27.826;2023-05-20T07:37:16;99242.25;;;19.42;100.00
11349;BME280;5729;43.570;27.826;2023-05-20T07:39:42;99246.13;;;19.45;100.00
11349;BME280;5729;43.570;27.826;2023-05-20T07:42:07;99256.88;;;19.63;100.00
11349;BME280;5729;43.570;27.826;2023-05-20T07:44:33;99254.03;;;19.70;100.00
11349;BME280;5729;43.570;27.826;2023-05-20T07:46:58;99254.28;;;19.79;100.00
11349;BME280;5729;43.570;27.826;2023-05-20T07:49:24;99252.69;;;19.81;100.00
11349;BME280;5729;43.570;27.826;2023-05-20T07:51:49;99252.19;;;19.86;100.00
11349;BME280;5729;43.570;27.826;2023-05-20T07:54:15;99248.53;;;19.97;100.00
11349;BME280;5729;43.570;27.826;2023-05-20T07:56:40;99253.13;;;20.03;100.00
11349;BME280;5729;43.570;27.826;2023-05-20T07:59:05;99253.66;;;20.18;100.00
11349;BME280;5729;43.570;27.826;2023-05-20T08:01:31;99261.13;;;20.41;100.00
11349;BME280;5729;43.570;27.826;2023-05-20T08:03:57;99253.34;;;20.39;100.00
11349;BME280;5729;43.570;27.826;2023-05-20T08:06:22;99223.63;;;20.38;100.00
11349;BME280;5729;43.570;27.826;2023-05-20T08:08:51;99242.81;;;20.57;100.00
11349;BME280;5729;43.570;27.826;2023-05-20T08:11:20;99257.66;;;20.60;100.00
11349;BME280;5729;43.570;27.826;2023-05-20T08:13:46;99245.09;;;20.62;100.00
11349;BME280;5729;43.570;27.826;2023-05-20T08:16:12;99259.97;;;20.81;100.00
11349;BME280;5729;43.570;27.826;2023-05-20T08:18:38;99252.13;;;21.03;100.00
11349;BME280;5729;43.570;27.826;2023-05-20T08:21:06;99248.91;;;21.08;100.00
11349;BME280;5729;43.570;27.826;2023-05-20T08:23:32;99251.03;;;21.20;100.00
11349;BME280;5729;43.570;27.826;2023-05-20T08:25:58;99246.78;;;21.35;100.00
11349;BME280;5729;43.570;27.826;2023-05-20T08:28:27;99245.97;;;21.55;100.00
11349;BME280;5729;43.570;27.826;2023-05-20T08:30:52;99245.84;;;21.78;100.00
11349;BME280;5729;43.570;27.826;2023-05-20T08:33:18;99245.84;;;21.78;100.00
11349;BME280;5729;43.570;27.826;2023-05-20T08:35:46;99246.69;;;22.24;100.00
11349;BME280;5729;43.570;27.826;2023-05-20T08:38:11;99241.94;;;22.57;100.00
11349;BME280;5729;43.570;27.826;2023-05-20T08:40:37;99248.22;;;22.86;100.00
11349;BME280;5729;43.570;27.826;2023-05-20T08:43:03;99246.84;;;23.07;100.00
11349;BME280;5729;43.570;27.826;2023-05-20T08:45:31;99239.75;;;23.22;100.00
11349;BME280;5729;43.570;27.826;2023-05-20T08:47:57;99240.31;;;23.42;100.00
11349;BME280;5729;43.570;27.826;2023-05-20T08:50:23;99245.50;;;23.78;100.00
11349;BME280;5729;43.570;27.826;2023-05-20T08:52:48;99241.44;;;23.83;100.00
11349;BME280;5729;43.570;27.826;2023-05-20T08:55:17;99250.59;;;23.67;100.00
11349;BME280;5729;43.570;27.826;2023-05-20T08:57:50;99238.38;;;23.81;100.00
11349;BME280;5729;43.570;27.826;2023-05-20T09:00:16;99246.81;;;23.86;100.00
11349;BME280;5729;43.570;27.826;2023-05-20T09:02:44;99245.63;;;23.75;100.00
11349;BME280;5729;43.570;27.826;2023-05-20T09:05:10;99251.34;;;23.80;100.00
11349;BME280;5729;43.570;27.826;2023-05-20T09:07:36;99238.78;;;23.92;100.00
11349;BME280;5729;43.570;27.826;2023-05-20T09:10:02;99234.69;;;24.09;100.00
11349;BME280;5729;43.570;27.826;2023-05-20T09:12:28;99247.06;;;24.74;100.00
11349;BME280;5729;43.570;27.826;2023-05-20T09:14:53;99233.94;;;25.00;100.00
11349;BME280;5729;43.570;27.826;2023-05-20T09:17:22;99233.63;;;25.50;100.00
11349;BME280;5729;43.570;27.826;2023-05-20T09:19:52;99224.19;;;26.55;100.00
11349;BME280;5729;43.570;27.826;2023-05-20T09:22:27;99224.03;;;27.04;100.00
11349;BME280;5729;43.570;27.826;2023-05-20T09:24:54;99222.31;;;27.58;100.00
11349;BME280;5729;43.570;27.826;2023-05-20T09:27:20;99216.66;;;28.09;88.05
11349;BME280;5729;43.570;27.826;2023-05-20T09:29:47;99213.44;;;29.17;76.54
11349;BME280;5729;43.570;27.826;2023-05-20T09:32:13;99203.13;;;31.15;60.76
11349;BME280;5729;43.570;27.826;2023-05-20T09:34:39;99212.97;;;30.64;57.84
11349;BME280;5729;43.570;27.826;2023-05-20T09:37:07;99196.09;;;32.05;52.56
11349;BME280;5729;43.570;27.826;2023-05-20T09:39:43;99202.31;;;34.10;45.31
11349;BME280;5729;43.570;27.826;2023-05-20T09:42:43;99187.41;;;34.48;43.61
11349;BME280;5729;43.570;27.826;2023-05-20T09:45:12;99187.94;;;31.53;47.69
11349;BME280;5729;43.570;27.826;2023-05-20T09:47:38;99186.44;;;30.03;52.93
11349;BME280;5729;43.570;27.826;2023-05-20T09:50:08;99194.38;;;28.28;61.31
11349;BME280;5729;43.570;27.826;2023-05-20T09:52:37;99182.97;;;27.87;68.87
11349;BME280;5729;43.570;27.826;2023-05-20T09:55:04;99194.81;;;27.45;76.95
11349;BME280;5729;43.570;27.826;2023-05-20T09:57:33;99187.91;;;26.90;77.11
11349;BME280;5729;43.570;27.826;2023-05-20T09:59:59;99193.63;;;26.77;84.38
11349;BME280;5729;43.570;27.826;2023-05-20T10:02:26;99189.31;;;26.94;84.58
11349;BME280;5729;43.570;27.826;2023-05-20T10:04:53;99185.78;;;26.94;80.21
11349;BME280;5729;43.570;27.826;2023-05-20T10:12:58;99170.25;;;27.38;78.09
11349;BME280;5729;43.570;27.826;2023-05-20T10:15:39;99177.25;;;27.58;79.87
11349;BME280;5729;43.570;27.826;2023-05-20T10:18:24;99174.97;;;27.47;77.49
11349;BME280;5729;43.570;27.826;2023-05-20T10:20:54;99161.25;;;28.09;75.00
11349;BME280;5729;43.570;27.826;2023-05-20T10:23:26;99161.25;;;28.09;73.13
11349;BME280;5729;43.570;27.826;2023-05-20T10:25:53;99151.00;;;28.25;73.16
11349;BME280;5729;43.570;27.826;2023-05-20T10:28:30;99159.59;;;28.27;71.03
11349;BME280;5729;43.570;27.826;2023-05-20T10:30:57;99151.19;;;27.97;70.55
11349;BME280;5729;43.570;27.826;2023-05-20T10:33:27;99147.53;;;27.91;68.00
11349;BME280;5729;43.570;27.826;2023-05-20T10:35:54;99154.59;;;27.68;66.67
11349;BME280;5729;43.570;27.826;2023-05-20T10:38:22;99154.34;;;27.81;65.13
11349;BME280;5729;43.570;27.826;2023-05-20T10:40:47;99139.03;;;27.95;50.04
11349;BME280;5729;43.570;27.826;2023-05-20T10:43:35;99152.44;;;28.20;45.22
11349;BME280;5729;43.570;27.826;2023-05-20T10:46:00;99146.84;;;29.17;43.63
11349;BME280;5729;43.570;27.826;2023-05-20T10:48:30;99152.25;;;30.17;38.90
11349;BME280;5729;43.570;27.826;2023-05-20T10:50:57;99151.78;;;31.22;36.57
11349;BME280;5729;43.570;27.826;2023-05-20T10:53:26;99144.09;;;33.11;34.81
11349;BME280;5729;43.570;27.826;2023-05-20T10:55:53;99150.19;;;33.38;30.75
11349;BME280;5729;43.570;27.826;2023-05-20T10:58:21;99148.16;;;32.77;31.94
11349;BME280;5729;43.570;27.826;2023-05-20T11:00:48;99136.97;;;32.88;31.41
11349;BME280;5729;43.570;27.826;2023-05-20T11:03:15;99136.41;;;33.57;29.98
11349;BME280;5729;43.570;27.826;2023-05-20T11:05:43;99130.09;;;34.14;29.60
11349;BME280;5729;43.570;27.826;2023-05-20T11:08:11;99130.53;;;33.77;28.18
11349;BME280;5729;43.570;27.826;2023-05-20T11:10:36;99137.16;;;33.57;28.02
11349;BME280;5729;43.570;27.826;2023-05-20T11:13:03;99111.97;;;33.68;28.27
11349;BME280;5729;43.570;27.826;2023-05-20T11:15:30;99123.91;;;33.85;28.38
11349;BME280;5729;43.570;27.826;2023-05-20T11:18:00;99126.78;;;33.46;28.29
11349;BME280;5729;43.570;27.826;2023-05-20T11:20:26;99126.28;;;34.17;27.93
11349;BME280;5729;43.570;27.826;2023-05-20T11:22:53;99114.06;;;33.57;27.53
11349;BME280;5729;43.570;27.826;2023-05-20T11:25:19;99109.31;;;32.79;28.48
11349;BME280;5729;43.570;27.826;2023-05-20T11:27:45;99102.22;;;33.00;29.01
11349;BME280;5729;43.570;27.826;2023-05-20T11:30:12;99107.13;;;33.74;28.04
11349;BME280;5729;43.570;27.826;2023-05-20T11:32:43;99099.47;;;33.92;27.93
11349;BME280;5729;43.570;27.826;2023-05-20T11:35:22;99095.84;;;34.43;27.59
11349;BME280;5729;43.570;27.826;2023-05-20T11:38:00;99082.81;;;35.41;28.22
11349;BME280;5729;43.570;27.826;2023-05-20T11:40:26;99097.88;;;34.48;27.28
11349;BME280;5729;43.570;27.826;2023-05-20T11:42:53;99100.94;;;33.18;27.84
11349;BME280;5729;43.570;27.826;2023-05-20T11:45:19;99098.19;;;31.81;29.64
11349;BME280;5729;43.570;27.826;2023-05-20T11:47:45;99099.94;;;30.15;30.63
11349;BME280;5729;43.570;27.826;2023-05-20T11:50:16;99091.19;;;29.82;31.83
11349;BME280;5729;43.570;27.826;2023-05-20T11:52:42;99087.03;;;29.51;32.03
11349;BME280;5729;43.570;27.826;2023-05-20T11:55:13;99082.97;;;28.38;33.63
11349;BME280;5729;43.570;27.826;2023-05-20T11:57:39;99078.00;;;28.42;33.61
11349;BME280;5729;43.570;27.826;2023-05-20T12:00:06;99064.78;;;28.81;33.28
11349;BME280;5729;43.570;27.826;2023-05-20T12:02:34;99064.47;;;29.64;32.25
11349;BME280;5729;43.570;27.826;2023-05-20T12:05:00;99075.63;;;29.70;32.54
11349;BME280;5729;43.570;27.826;2023-05-20T12:07:25;99079.72;;;29.94;32.77
11349;BME280;5729;43.570;27.826;2023-05-20T12:09:51;99076.06;;;29.42;32.79
11349;BME280;5729;43.570;27.826;2023-05-20T12:12:16;99079.81;;;30.00;32.39
11349;BME280;5729;43.570;27.826;2023-05-20T12:14:41;99074.50;;;29.82;31.46
11349;BME280;5729;43.570;27.826;2023-05-20T12:17:07;99074.78;;;30.24;31.64
11349;BME280;5729;43.570;27.826;2023-05-20T12:19:32;99079.38;;;30.59;30.13
11349;BME280;5729;43.570;27.826;2023-05-20T12:21:57;99072.22;;;31.10;30.09
11349;BME280;5729;43.570;27.826;2023-05-20T12:24:23;99069.13;;;30.71;31.41
11349;BME280;5729;43.570;27.826;2023-05-20T12:26:48;99060.63;;;31.17;30.30
11349;BME280;5729;43.570;27.826;2023-05-20T12:29:14;99058.09;;;31.19;30.74
11349;BME280;5729;43.570;27.826;2023-05-20T12:31:39;99046.81;;;31.39;29.51
11349;BME280;5729;43.570;27.826;2023-05-20T12:34:04;99064.19;;;31.23;29.72
11349;BME280;5729;43.570;27.826;2023-05-20T12:36:30;99054.63;;;31.89;29.29
11349;BME280;5729;43.570;27.826;2023-05-20T12:38:56;99057.34;;;31.18;28.97
11349;BME280;5729;43.570;27.826;2023-05-20T12:41:21;99065.25;;;30.37;29.54
11349;BME280;5729;43.570;27.826;2023-05-20T12:43:47;99068.31;;;30.39;29.67
11349;BME280;5729;43.570;27.826;2023-05-20T12:46:12;99056.00;;;30.19;30.29
11349;BME280;5729;43.570;27.826;2023-05-20T12:48:38;99051.16;;;29.94;30.12
11349;BME280;5729;43.570;27.826;2023-05-20T12:51:03;99048.25;;;30.03;30.86
11349;BME280;5729;43.570;27.826;2023-05-20T12:53:29;99048.25;;;30.29;30.56
11349;BME280;5729;43.570;27.826;2023-05-20T12:55:54;99055.63;;;29.86;31.01